Time;durP1;ratioP1;P1;durP2;ratioP2;P2;SDS_P1;SDS_P2;PMS_P1;PMS_P2;Temp;Humidity;BMP_temperature;BMP_pressure;BME280_temperature;BME280_humidity;BME280_pressure;Samples;Min_cycle;Max_cycle;Signal;HPM_P1;HPM_P2
2022/07/29 00:00:30;;;;;;;6.95;6.30;;;;;16.90;94099.00;;;;7397514;19;20139;-73
2022/07/29 00:03:07;;;;;;;6.63;6.03;;;;;17.00;94092.00;;;;7395663;19;20484;-73
2022/07/29 00:05:42;;;;;;;9.35;6.75;;;;;16.90;94090.00;;;;7395266;19;20584;-73
2022/07/29 00:08:10;;;;;;;8.57;6.82;;;;;16.90;94091.00;;;;7394868;19;20148;-73
2022/07/29 00:10:39;;;;;;;9.88;6.60;;;;;16.90;94096.00;;;;7392409;19;20153;-73
2022/07/29 00:13:26;;;;;;;7.40;6.70;;;;;16.90;94085.00;;;;7396006;19;20178;-74
2022/07/29 00:16:00;;;;;;;7.65;6.35;;;;;16.80;94092.00;;;;7392488;19;20137;-73
2022/07/29 00:18:36;;;;;;;7.45;6.38;;;;;16.80;94084.00;;;;7396268;19;20144;-74
2022/07/29 00:21:04;;;;;;;6.78;5.78;;;;;16.90;94085.00;;;;7396638;19;20216;-72
2022/07/29 00:23:32;;;;;;;6.40;5.90;;;;;16.90;94084.00;;;;7391680;19;20521;-72
2022/07/29 00:26:07;;;;;;;8.57;6.80;;;;;17.00;94081.00;;;;7393895;19;20141;-74
2022/07/29 00:28:34;;;;;;;6.90;6.30;;;;;17.00;94083.00;;;;7391774;19;20135;-73
2022/07/29 00:31:02;;;;;;;8.10;6.20;;;;;17.10;94074.00;;;;7391731;19;20164;-73
2022/07/29 00:33:36;;;;;;;8.50;6.22;;;;;17.00;94073.00;;;;7390003;19;20121;-73
2022/07/29 00:36:04;;;;;;;7.28;6.40;;;;;17.10;94077.00;;;;7391153;19;20189;-74
2022/07/29 00:38:32;;;;;;;7.72;6.10;;;;;17.20;94072.00;;;;7394923;19;20149;-73
2022/07/29 00:41:06;;;;;;;9.57;6.03;;;;;17.20;94064.00;;;;7396226;19;20579;-72
2022/07/29 00:43:34;;;;;;;8.68;6.25;;;;;17.20;94061.00;;;;7391258;19;20212;-72
2022/07/29 00:46:01;;;;;;;6.82;5.93;;;;;17.10;94051.00;;;;7392342;19;20141;-73
2022/07/29 00:48:35;;;;;;;5.85;5.28;;;;;17.20;94058.00;;;;7393764;19;20216;-71
2022/07/29 00:51:05;;;;;;;6.10;5.50;;;;;17.00;94055.00;;;;7394068;19;20144;-73
2022/07/29 00:53:33;;;;;;;6.07;5.50;;;;;17.00;94050.00;;;;7391928;19;20436;-74
2022/07/29 00:56:07;;;;;;;8.68;5.55;;;;;17.10;94041.00;;;;7393829;19;20493;-74
2022/07/29 00:58:35;;;;;;;5.97;5.38;;;;;17.20;94043.00;;;;7395313;19;20556;-74
2022/07/29 01:01:03;;;;;;;6.13;5.28;;;;;17.10;94044.00;;;;7393631;19;20497;-75
2022/07/29 01:03:37;;;;;;;8.00;5.57;;;;;17.10;94042.00;;;;7390009;19;20216;-73
2022/07/29 01:06:05;;;;;;;6.32;5.68;;;;;17.10;94037.00;;;;7390105;19;20481;-74
2022/07/29 01:08:33;;;;;;;8.10;5.82;;;;;17.10;94038.00;;;;7392478;19;20145;-74
2022/07/29 01:11:09;;;;;;;6.18;5.57;;;;;17.20;94038.00;;;;7396059;19;20803;-71
2022/07/29 01:13:45;;;;;;;7.43;5.30;;;;;17.10;94047.00;;;;7391752;19;20240;-73
2022/07/29 01:16:38;;;;;;;5.32;4.82;;;;;17.10;94041.00;;;;7391830;19;20556;-73
2022/07/29 01:19:47;;;;;;;6.55;5.13;;;;;17.10;94041.00;;;;7389726;19;20293;-72
2022/07/29 01:23:00;;;;;;;6.47;5.15;;;;;16.90;94033.00;;;;7393383;19;20462;-72
2022/07/29 01:26:18;;;;;;;5.88;5.28;;;;;16.90;94024.00;;;;7392559;19;20152;-71
2022/07/29 01:28:58;;;;;;;6.55;5.35;;;;;17.00;94027.00;;;;7395289;19;20132;-73
2022/07/29 01:31:41;;;;;;;7.55;5.68;;;;;16.90;94033.00;;;;7394840;19;20133;-74
2022/07/29 01:34:50;;;;;;;6.38;4.78;;;;;16.90;94030.00;;;;7393595;19;20629;-76
2022/07/29 01:37:38;;;;;;;6.95;5.13;;;;;17.00;94030.00;;;;7397205;19;20670;-74
2022/07/29 01:40:30;;;;;;;5.45;4.95;;;;;16.90;94029.00;;;;7395553;19;20606;-73
2022/07/29 01:43:14;;;;;;;4.72;4.32;;;;;17.10;94031.00;;;;7396775;19;20518;-74
2022/07/29 01:46:00;;;;;;;4.40;4.00;;;;;17.10;94030.00;;;;7400441;19;20144;-74
2022/07/29 01:48:40;;;;;;;5.13;4.50;;;;;17.10;94031.00;;;;7399853;19;20595;-73
2022/07/29 01:51:20;;;;;;;4.60;3.72;;;;;17.10;94019.00;;;;7402250;19;20585;-72
2022/07/29 01:54:26;;;;;;;3.90;3.50;;;;;17.00;94027.00;;;;7397104;19;20129;-72
2022/07/29 01:57:01;;;;;;;5.15;3.80;;;;;17.00;94023.00;;;;7399099;19;20532;-73
2022/07/29 01:59:30;;;;;;;4.35;3.95;;;;;16.90;94021.00;;;;7396989;19;20557;-73
2022/07/29 02:01:58;;;;;;;5.53;3.60;;;;;16.90;94023.00;;;;7398397;19;20148;-73
2022/07/29 02:04:35;;;;;;;4.50;3.50;;;;;17.00;94014.00;;;;7398622;19;20784;-72
2022/07/29 02:07:06;;;;;;;3.95;3.50;;;;;17.00;94018.00;;;;7399394;19;20148;-71
2022/07/29 02:09:42;;;;;;;4.40;3.63;;;;;17.10;94026.00;;;;7396355;19;20610;-73
2022/07/29 02:12:18;;;;;;;4.25;3.85;;;;;17.10;94015.00;;;;7397510;19;20619;-72
2022/07/29 02:15:05;;;;;;;4.10;3.58;;;;;17.10;94027.00;;;;7398308;19;20121;-72
2022/07/29 02:17:50;;;;;;;6.63;3.75;;;;;17.10;94017.00;;;;7396927;19;20149;-72
2022/07/29 02:20:27;;;;;;;4.32;3.53;;;;;17.10;94021.00;;;;7398573;19;20125;-72
2022/07/29 02:22:59;;;;;;;4.65;3.42;;;;;17.00;94026.00;;;;7395411;19;20144;-72
2022/07/29 02:25:33;;;;;;;3.60;3.30;;;;;17.00;94021.00;;;;7396596;19;20132;-72
2022/07/29 02:28:06;;;;;;;3.67;3.28;;;;;17.00;94018.00;;;;7396901;19;20128;-71
2022/07/29 02:30:49;;;;;;;2.63;2.42;;;;;17.20;94018.00;;;;7397450;19;20144;-73
2022/07/29 02:33:18;;;;;;;5.93;3.13;;;;;17.00;94015.00;;;;7400472;19;20136;-72
2022/07/29 02:35:53;;;;;;;4.65;3.20;;;;;17.10;94015.00;;;;7394322;19;20120;-74
2022/07/29 02:41:35;;;;;;;3.92;3.30;;;;;17.00;94004.00;;;;7401250;19;20143;-71
2022/07/29 02:44:13;;;;;;;4.43;2.92;;;;;17.10;94007.00;;;;7394760;19;20125;-74
2022/07/29 02:47:15;;;;;;;5.38;3.33;;;;;17.10;94005.00;;;;7399149;19;20595;-74
2022/07/29 02:50:08;;;;;;;4.28;3.20;;;;;17.00;94010.00;;;;7396236;19;20141;-73
2022/07/29 02:53:27;;;;;;;3.33;3.03;;;;;17.00;94006.00;;;;7398660;19;20148;-73
2022/07/29 02:55:59;;;;;;;4.18;2.97;;;;;17.00;94014.00;;;;7393288;19;20144;-72
2022/07/29 02:58:38;;;;;;;5.65;3.40;;;;;17.10;94009.00;;;;7397693;19;20149;-73
2022/07/29 03:01:20;;;;;;;3.42;3.13;;;;;17.10;94009.00;;;;7397901;19;20169;-73
2022/07/29 03:03:55;;;;;;;3.70;3.35;;;;;17.00;94005.00;;;;7395957;19;20481;-73
2022/07/29 03:06:25;;;;;;;4.03;3.63;;;;;17.00;94006.00;;;;7395429;19;20586;-73
2022/07/29 03:09:08;;;;;;;3.40;3.10;;;;;17.00;94004.00;;;;7397964;19;20172;-73
2022/07/29 03:11:43;;;;;;;4.93;3.75;;;;;17.00;94011.00;;;;7395225;19;20204;-73
2022/07/29 03:14:26;;;;;;;4.32;3.40;;;;;17.00;94012.00;;;;7394007;19;20164;-73
2022/07/29 03:17:02;;;;;;;4.78;3.90;;;;;17.00;94011.00;;;;7393383;19;20749;-74
2022/07/29 03:19:30;;;;;;;4.90;4.00;;;;;16.90;94010.00;;;;7394181;19;20161;-74
2022/07/29 03:21:59;;;;;;;4.38;3.95;;;;;16.90;94010.00;;;;7396510;19;20164;-73
2022/07/29 03:24:35;;;;;;;5.13;4.20;;;;;16.70;94017.00;;;;7395214;19;20544;-72
2022/07/29 03:27:05;;;;;;;4.90;4.38;;;;;16.70;94016.00;;;;7398383;19;20563;-73
2022/07/29 03:29:33;;;;;;;5.43;3.97;;;;;16.70;94014.00;;;;7395339;19;20144;-72
2022/07/29 03:32:10;;;;;;;6.55;4.70;;;;;16.60;94010.00;;;;7394598;19;20136;-73
2022/07/29 03:34:41;;;;;;;5.38;4.88;;;;;16.70;94006.00;;;;7392634;19;20670;-71
2022/07/29 03:37:17;;;;;;;4.80;4.38;;;;;16.60;94011.00;;;;7394433;19;20212;-73
2022/07/29 03:39:47;;;;;;;4.70;4.30;;;;;16.40;94015.00;;;;7393295;19;20141;-72
2022/07/29 03:42:17;;;;;;;5.50;4.90;;;;;16.50;94013.00;;;;7395168;19;20168;-74
2022/07/29 03:44:57;;;;;;;5.85;4.70;;;;;16.30;94007.00;;;;7396479;19;20125;-74
2022/07/29 03:47:28;;;;;;;6.78;4.97;;;;;16.30;94008.00;;;;7395710;19;20125;-73
2022/07/29 03:50:19;;;;;;;5.30;4.80;;;;;16.20;94003.00;;;;7398004;19;20141;-73
2022/07/29 03:52:49;;;;;;;9.25;5.10;;;;;16.10;94003.00;;;;7399528;19;20153;-73
2022/07/29 03:55:24;;;;;;;6.70;5.32;;;;;16.10;94006.00;;;;7393744;19;20140;-73
2022/07/29 03:57:54;;;;;;;6.00;4.90;;;;;16.10;94006.00;;;;7396109;19;20564;-72
2022/07/29 04:00:25;;;;;;;6.25;5.43;;;;;16.10;94003.00;;;;7399172;19;20140;-72
2022/07/29 04:03:00;;;;;;;5.93;5.38;;;;;16.10;94008.00;;;;7401355;19;20427;-72
2022/07/29 04:05:28;;;;;;;7.65;5.80;;;;;16.10;93999.00;;;;7396236;19;20176;-72
2022/07/29 04:07:57;;;;;;;9.25;6.22;;;;;16.20;93999.00;;;;7395233;19;20145;-72
2022/07/29 04:10:34;;;;;;;5.55;5.03;;;;;16.10;94005.00;;;;7395746;19;20184;-72
2022/07/29 04:13:09;;;;;;;6.60;5.50;;;;;16.10;94003.00;;;;7394503;19;20149;-72
2022/07/29 04:15:50;;;;;;;5.88;5.38;;;;;16.00;94010.00;;;;7395100;19;20125;-72
2022/07/29 04:18:19;;;;;;;5.78;5.15;;;;;15.90;94008.00;;;;7394641;19;20143;-73
2022/07/29 04:20:53;;;;;;;6.20;5.35;;;;;15.90;94012.00;;;;7395803;19;20120;-72
2022/07/29 04:23:22;;;;;;;5.82;5.32;;;;;15.90;94007.00;;;;7394891;19;20133;-72
2022/07/29 04:25:50;;;;;;;6.47;5.63;;;;;15.90;94009.00;;;;7395624;19;20129;-73
2022/07/29 04:28:26;;;;;;;8.90;5.55;;;;;15.90;94010.00;;;;7394124;19;20144;-73
2022/07/29 04:30:53;;;;;;;6.25;5.47;;;;;16.00;94011.00;;;;7394641;19;20133;-73
2022/07/29 04:33:21;;;;;;;6.47;5.72;;;;;16.00;94013.00;;;;7396588;19;20125;-73
2022/07/29 04:35:54;;;;;;;7.72;5.43;;;;;15.90;94016.00;;;;7393402;19;20129;-72
2022/07/29 04:38:29;;;;;;;5.38;4.88;;;;;15.90;94019.00;;;;7394574;19;20161;-72
2022/07/29 04:41:04;;;;;;;5.45;4.95;;;;;15.90;94019.00;;;;7393582;19;20129;-74
2022/07/29 04:43:36;;;;;;;5.65;5.15;;;;;15.90;94017.00;;;;7394503;19;20160;-73
2022/07/29 04:46:06;;;;;;;11.38;5.60;;;;;16.00;94014.00;;;;7394985;19;20160;-71
2022/07/29 04:48:40;;;;;;;5.97;5.38;;;;;16.00;94018.00;;;;7393982;19;20607;-73
2022/07/29 04:51:07;;;;;;;5.85;5.28;;;;;16.00;94022.00;;;;7393978;19;20464;-73
2022/07/29 04:53:35;;;;;;;6.57;5.55;;;;;16.20;94014.00;;;;7393576;19;20117;-72
2022/07/29 04:56:11;;;;;;;7.18;6.30;;;;;16.30;94015.00;;;;7392735;19;20124;-73
2022/07/29 04:58:39;;;;;;;6.15;5.57;;;;;16.30;94007.00;;;;7393438;19;20151;-73
2022/07/29 05:01:06;;;;;;;7.63;6.30;;;;;16.40;94018.00;;;;7393692;19;20113;-73
2022/07/29 05:03:41;;;;;;;6.95;6.05;;;;;16.50;94018.00;;;;7394169;19;20124;-73
2022/07/29 05:06:10;;;;;;;6.50;5.90;;;;;16.60;94016.00;;;;7393308;19;20160;-73
2022/07/29 05:08:37;;;;;;;9.50;6.05;;;;;16.70;94012.00;;;;7394754;19;20113;-73
2022/07/29 05:11:12;;;;;;;7.28;5.97;;;;;16.90;94015.00;;;;7395206;19;20135;-73
2022/07/29 05:13:52;;;;;;;8.88;5.68;;;;;17.10;94010.00;;;;7391350;19;20164;-73
2022/07/29 05:16:34;;;;;;;6.35;5.75;;;;;17.40;94015.00;;;;7391539;19;20135;-73
2022/07/29 05:19:02;;;;;;;6.38;5.68;;;;;17.60;94016.00;;;;7398727;19;20140;-73
2022/07/29 05:21:41;;;;;;;5.85;5.35;;;;;17.80;94012.00;;;;7400030;19;20164;-74
2022/07/29 05:24:08;;;;;;;8.32;7.45;;;;;18.00;94028.00;;;;7398980;19;20622;-73
2022/07/29 05:26:36;;;;;;;6.20;5.60;;;;;18.00;94025.00;;;;7399936;19;20137;-73
2022/07/29 05:29:11;;;;;;;5.90;5.38;;;;;18.10;94028.00;;;;7397569;19;20129;-73
2022/07/29 05:31:58;;;;;;;5.65;5.15;;;;;18.00;94030.00;;;;7400521;19;20140;-74
2022/07/29 05:34:32;;;;;;;5.45;4.95;;;;;18.00;94037.00;;;;7401385;19;20152;-72
2022/07/29 05:36:59;;;;;;;6.00;5.47;;;;;17.90;94029.00;;;;7397993;19;20149;-73
2022/07/29 05:39:27;;;;;;;5.78;5.28;;;;;17.90;94043.00;;;;7398803;19;20145;-73
2022/07/29 05:42:16;;;;;;;8.20;5.47;;;;;17.80;94035.00;;;;7402182;19;20148;-74
2022/07/29 05:44:44;;;;;;;6.47;5.88;;;;;17.90;94043.00;;;;7402486;19;20141;-73
2022/07/29 05:47:18;;;;;;;6.03;5.40;;;;;18.00;94043.00;;;;7402551;19;20164;-74
2022/07/29 05:49:46;;;;;;;9.73;6.38;;;;;18.10;94039.00;;;;7400801;19;20140;-73
2022/07/29 05:52:13;;;;;;;6.50;5.55;;;;;18.10;94040.00;;;;7400476;19;20144;-74
2022/07/29 05:54:48;;;;;;;7.88;5.57;;;;;18.30;94038.00;;;;7401969;19;20140;-74
2022/07/29 05:57:18;;;;;;;5.90;5.25;;;;;18.40;94043.00;;;;7400620;19;20613;-73
2022/07/29 05:59:46;;;;;;;6.82;5.38;;;;;18.50;94047.00;;;;7396056;19;20551;-73
2022/07/29 06:02:20;;;;;;;5.90;5.40;;;;;18.60;94043.00;;;;7397303;19;20154;-73
2022/07/29 06:04:48;;;;;;;5.80;5.20;;;;;18.50;94050.00;;;;7399146;19;20137;-73
2022/07/29 06:07:16;;;;;;;5.78;5.22;;;;;18.50;94059.00;;;;7398952;19;20151;-73
2022/07/29 06:09:50;;;;;;;5.47;4.97;;;;;18.50;94051.00;;;;7395423;19;20161;-74
2022/07/29 06:12:17;;;;;;;6.55;4.70;;;;;18.50;94058.00;;;;7399147;19;20129;-73
2022/07/29 06:14:51;;;;;;;6.07;5.45;;;;;18.50;94058.00;;;;7395389;19;20592;-73
2022/07/29 06:17:27;;;;;;;5.55;5.05;;;;;18.60;94058.00;;;;7395187;19;20144;-74
2022/07/29 06:19:54;;;;;;;5.95;5.35;;;;;18.70;94060.00;;;;7396233;19;20148;-73
2022/07/29 06:22:22;;;;;;;5.50;5.10;;;;;18.80;94058.00;;;;7395958;19;20153;-73
2022/07/29 06:24:56;;;;;;;5.45;4.95;;;;;19.00;94053.00;;;;7398455;19;20140;-74
2022/07/29 06:27:23;;;;;;;6.88;5.20;;;;;19.40;94062.00;;;;7395413;19;20166;-73
2022/07/29 06:29:51;;;;;;;7.93;4.55;;;;;19.50;94061.00;;;;7394431;19;20152;-73
2022/07/29 06:32:25;;;;;;;6.40;5.10;;;;;19.60;94057.00;;;;7397096;19;20232;-74
2022/07/29 06:34:53;;;;;;;6.88;5.07;;;;;19.90;94058.00;;;;7396717;19;20198;-73
2022/07/29 06:37:41;;;;;;;6.65;4.82;;;;;20.30;94057.00;;;;7395005;19;20145;-72
2022/07/29 06:43:07;;;;;;;5.72;5.10;;;;;21.10;94062.00;;;;7398787;19;20622;-73
2022/07/29 06:45:42;;;;;;;7.22;4.60;;;;;20.70;94066.00;;;;7395510;19;20140;-72
2022/07/29 06:48:10;;;;;;;5.70;4.90;;;;;20.70;94073.00;;;;7394434;19;20617;-73
2022/07/29 06:50:38;;;;;;;7.10;3.95;;;;;20.60;94057.00;;;;7395550;19;20605;-73
2022/07/29 06:53:12;;;;;;;4.00;3.38;;;;;20.70;94060.00;;;;7398462;19;20223;-72
2022/07/29 06:55:40;;;;;;;4.85;4.38;;;;;20.90;94065.00;;;;7393267;19;20497;-72
2022/07/29 06:58:08;;;;;;;5.28;4.80;;;;;20.80;94075.00;;;;7394281;19;20155;-73
2022/07/29 07:00:44;;;;;;;5.00;4.50;;;;;21.10;94079.00;;;;7396358;19;20141;-72
2022/07/29 07:03:12;;;;;;;5.57;5.03;;;;;20.90;94075.00;;;;7397769;19;20593;-72
2022/07/29 07:05:40;;;;;;;5.53;4.55;;;;;21.20;94073.00;;;;7393873;19;20876;-72
2022/07/29 07:08:15;;;;;;;7.35;4.70;;;;;21.80;94073.00;;;;7395103;19;20629;-73
2022/07/29 07:10:43;;;;;;;6.03;4.70;;;;;22.00;94078.00;;;;7394195;19;20478;-72
2022/07/29 07:13:12;;;;;;;5.03;3.38;;;;;22.10;94070.00;;;;7396811;19;20148;-71
2022/07/29 07:15:48;;;;;;;4.50;3.10;;;;;22.20;94067.00;;;;7394591;19;20715;-73
2022/07/29 07:18:16;;;;;;;7.45;3.42;;;;;22.10;94080.00;;;;7394757;19;20140;-74
2022/07/29 07:20:44;;;;;;;6.07;3.60;;;;;21.70;94078.00;;;;7387800;19;20639;-73
2022/07/29 07:23:18;;;;;;;5.80;3.70;;;;;21.90;94081.00;;;;7395765;19;20140;-74
2022/07/29 07:25:45;;;;;;;3.45;2.75;;;;;22.20;94069.00;;;;7395587;19;20164;-74
2022/07/29 07:28:13;;;;;;;5.68;3.20;;;;;22.60;94076.00;;;;7394668;19;20153;-70
2022/07/29 07:30:57;;;;;;;9.95;4.15;;;;;22.70;94076.00;;;;7397076;19;20152;-73
2022/07/29 07:33:24;;;;;;;6.20;3.85;;;;;22.90;94078.00;;;;7395646;19;20589;-71
2022/07/29 07:36:00;;;;;;;4.30;3.13;;;;;22.90;94075.00;;;;7396853;19;20220;-71
2022/07/29 07:38:27;;;;;;;4.75;3.45;;;;;22.90;94081.00;;;;7395680;19;20147;-70
2022/07/29 07:40:55;;;;;;;4.93;3.45;;;;;22.60;94088.00;;;;7396368;19;20153;-71
2022/07/29 07:43:30;;;;;;;7.47;3.63;;;;;22.70;94079.00;;;;7395779;19;20196;-71
2022/07/29 07:45:59;;;;;;;5.43;3.80;;;;;23.10;94075.00;;;;7397796;19;20467;-72
2022/07/29 07:48:27;;;;;;;4.22;3.05;;;;;23.70;94073.00;;;;7397530;19;20161;-73
2022/07/29 07:51:03;;;;;;;3.90;3.25;;;;;24.10;94058.00;;;;7397490;19;20132;-71
2022/07/29 07:53:31;;;;;;;5.03;3.33;;;;;24.30;94061.00;;;;7394613;19;20487;-71
2022/07/29 07:55:59;;;;;;;5.72;3.63;;;;;24.40;94077.00;;;;7393543;19;20511;-71
2022/07/29 07:58:38;;;;;;;4.93;3.30;;;;;24.30;94068.00;;;;7395043;19;20487;-72
2022/07/29 08:01:07;;;;;;;5.80;4.07;;;;;24.50;94070.00;;;;7395806;19;20216;-72
2022/07/29 08:03:42;;;;;;;4.13;3.15;;;;;24.70;94069.00;;;;7393503;19;20124;-72
2022/07/29 08:06:10;;;;;;;5.45;3.70;;;;;24.80;94072.00;;;;7395155;19;20172;-74
2022/07/29 08:08:38;;;;;;;6.22;3.85;;;;;24.60;94083.00;;;;7394821;19;20129;-73
2022/07/29 08:11:13;;;;;;;5.15;3.60;;;;;24.80;94077.00;;;;7398045;19;20146;-73
2022/07/29 08:13:53;;;;;;;4.47;3.53;;;;;25.10;94070.00;;;;7393846;19;20177;-72
2022/07/29 08:16:28;;;;;;;8.88;3.70;;;;;25.10;94080.00;;;;7395057;19;20208;-72
2022/07/29 08:18:56;;;;;;;5.22;3.60;;;;;25.00;94088.00;;;;7397322;19;20136;-73
2022/07/29 08:21:25;;;;;;;4.47;3.85;;;;;24.90;94080.00;;;;7396090;19;20631;-72
2022/07/29 08:26:45;;;;;;;7.70;3.60;;;;;25.00;94086.00;;;;7398267;19;20261;-69
2022/07/29 08:29:20;;;;;;;4.20;3.42;;;;;25.20;94092.00;;;;7396961;19;20616;-71
2022/07/29 08:31:48;;;;;;;7.85;3.60;;;;;25.30;94091.00;;;;7396015;19;20158;-71
2022/07/29 08:34:16;;;;;;;4.63;3.60;;;;;25.70;94097.00;;;;7399978;19;20170;-72
2022/07/29 08:36:55;;;;;;;5.57;3.83;;;;;25.40;94101.00;;;;7400217;19;20201;-70
2022/07/29 08:39:23;;;;;;;4.43;3.40;;;;;25.20;94093.00;;;;7397581;19;20135;-71
2022/07/29 08:41:58;;;;;;;4.43;3.58;;;;;25.40;94095.00;;;;7392006;19;20148;-71
2022/07/29 08:44:26;;;;;;;4.53;3.70;;;;;25.60;94096.00;;;;7394118;19;20148;-71
2022/07/29 08:46:57;;;;;;;5.22;3.30;;;;;25.40;94093.00;;;;7394076;19;20160;-71
2022/07/29 08:49:35;;;;;;;9.98;3.72;;;;;25.60;94090.00;;;;7393521;19;20120;-71
2022/07/29 08:52:03;;;;;;;5.78;3.92;;;;;25.80;94101.00;;;;7393775;19;20192;-72
2022/07/29 08:54:31;;;;;;;8.98;3.67;;;;;25.70;94089.00;;;;7401050;19;20645;-71
2022/07/29 08:57:06;;;;;;;4.20;3.40;;;;;25.70;94095.00;;;;7400394;19;20150;-71
2022/07/29 08:59:37;;;;;;;5.18;3.70;;;;;25.80;94102.00;;;;7400226;19;20144;-72
2022/07/29 09:02:19;;;;;;;4.53;3.40;;;;;25.70;94105.00;;;;7398670;19;20148;-70
2022/07/29 09:05:01;;;;;;;8.48;3.90;;;;;25.20;94102.00;;;;7401099;19;20499;-71
2022/07/29 09:07:29;;;;;;;7.75;3.97;;;;;25.50;94104.00;;;;7397984;19;20642;-71
2022/07/29 09:10:05;;;;;;;4.68;3.50;;;;;26.30;94106.00;;;;7398384;19;20137;-71
2022/07/29 09:12:33;;;;;;;5.43;3.50;;;;;26.50;94100.00;;;;7397803;19;20133;-71
2022/07/29 09:15:04;;;;;;;6.05;3.92;;;;;26.00;94101.00;;;;7397932;19;20456;-72
2022/07/29 09:17:43;;;;;;;6.30;3.88;;;;;26.60;94098.00;;;;7395646;19;20150;-74
2022/07/29 09:20:16;;;;;;;5.78;3.80;;;;;26.20;94097.00;;;;7397763;19;20156;-72
2022/07/29 09:22:53;;;;;;;4.43;3.60;;;;;25.90;94106.00;;;;7400240;19;20143;-71
2022/07/29 09:25:38;;;;;;;4.68;3.58;;;;;25.70;94100.00;;;;7397804;19;20555;-73
2022/07/29 09:28:17;;;;;;;6.28;3.80;;;;;26.10;94095.00;;;;7398215;19;20649;-72
2022/07/29 09:30:52;;;;;;;5.65;3.60;;;;;26.30;94113.00;;;;7398986;19;20506;-71
2022/07/29 09:33:35;;;;;;;5.88;3.70;;;;;26.10;94111.00;;;;7398095;19;20154;-70
2022/07/29 09:36:08;;;;;;;8.00;3.78;;;;;25.50;94115.00;;;;7397988;19;20151;-71
2022/07/29 09:39:00;;;;;;;5.20;3.50;;;;;25.00;94116.00;;;;7398884;19;20153;-71
2022/07/29 09:41:29;;;;;;;4.20;3.72;;;;;25.30;94104.00;;;;7397748;19;20152;-71
2022/07/29 09:44:05;;;;;;;4.75;3.45;;;;;25.70;94111.00;;;;7397936;19;20192;-74
2022/07/29 09:46:34;;;;;;;4.43;3.40;;;;;25.40;94101.00;;;;7400216;19;20171;-71
2022/07/29 09:49:14;;;;;;;6.38;3.38;;;;;25.80;94109.00;;;;7399782;19;20572;-72
2022/07/29 09:52:00;;;;;;;4.47;3.65;;;;;25.60;94105.00;;;;7396821;19;20161;-71
2022/07/29 09:54:34;;;;;;;4.97;3.30;;;;;25.20;94106.00;;;;7397544;19;20177;-71
2022/07/29 09:57:20;;;;;;;4.72;3.40;;;;;25.00;94105.00;;;;7399249;19;20125;-73
2022/07/29 10:00:01;;;;;;;5.93;3.50;;;;;25.10;94117.00;;;;7397023;19;20135;-71
2022/07/29 10:02:38;;;;;;;5.72;3.53;;;;;25.00;94114.00;;;;7398027;19;20124;-70
2022/07/29 10:05:21;;;;;;;6.38;3.42;;;;;25.20;94112.00;;;;7396153;19;20141;-71
2022/07/29 10:08:04;;;;;;;3.63;3.03;;;;;25.20;94106.00;;;;7395966;19;20151;-71
2022/07/29 10:10:35;;;;;;;5.13;2.95;;;;;25.30;94114.00;;;;7397498;19;20133;-71
2022/07/29 10:13:18;;;;;;;3.95;3.47;;;;;25.20;94108.00;;;;7399283;19;20582;-71
2022/07/29 10:15:53;;;;;;;3.53;3.10;;;;;25.60;94085.00;;;;7396266;19;20161;-71
2022/07/29 10:18:28;;;;;;;9.57;3.67;;;;;26.70;94085.00;;;;7396675;19;20603;-71
2022/07/29 10:20:56;;;;;;;5.47;3.33;;;;;27.20;94092.00;;;;7397264;19;20150;-69
2022/07/29 10:23:25;;;;;;;5.72;3.65;;;;;27.10;94096.00;;;;7395192;19;20622;-72
2022/07/29 10:26:15;;;;;;;6.50;3.10;;;;;26.50;94083.00;;;;7397165;19;20200;-70
2022/07/29 10:28:43;;;;;;;4.70;3.58;;;;;25.70;94098.00;;;;7398134;19;20140;-71
2022/07/29 10:31:31;;;;;;;6.28;3.40;;;;;25.50;94110.00;;;;7396642;19;20191;-70
2022/07/29 10:34:17;;;;;;;4.80;3.65;;;;;25.40;94109.00;;;;7396222;19;20129;-71
2022/07/29 10:37:22;;;;;;;10.25;4.00;;;;;25.10;94117.00;;;;7396733;19;20130;-71
2022/07/29 10:43:29;;;;;;;5.38;3.30;;;;;24.50;94104.00;;;;7397194;19;20216;-71
2022/07/29 10:46:00;;;;;;;3.95;3.38;;;;;24.60;94104.00;;;;7394373;19;20141;-70
2022/07/29 10:48:35;;;;;;;3.95;3.53;;;;;24.70;94099.00;;;;7396298;19;20148;-70
2022/07/29 10:51:08;;;;;;;3.80;3.40;;;;;24.90;94101.00;;;;7399912;19;20132;-72
2022/07/29 10:53:50;;;;;;;7.13;3.78;;;;;24.90;94108.00;;;;7395665;19;20168;-72
2022/07/29 10:56:35;;;;;;;4.10;3.60;;;;;24.70;94118.00;;;;7394911;19;20490;-72
2022/07/29 10:59:19;;;;;;;7.38;4.10;;;;;24.50;94115.00;;;;7396788;19;20658;-71
2022/07/29 11:01:54;;;;;;;6.97;3.30;;;;;24.50;94125.00;;;;7392744;19;20156;-71
2022/07/29 11:04:51;;;;;;;4.72;3.45;;;;;24.10;94124.00;;;;7395356;19;20145;-71
2022/07/29 11:07:19;;;;;;;5.22;3.70;;;;;24.00;94125.00;;;;7397372;19;20252;-70
2022/07/29 11:10:12;;;;;;;4.72;3.30;;;;;23.80;94127.00;;;;7393516;19;20141;-71
2022/07/29 11:12:43;;;;;;;4.75;3.63;;;;;23.70;94119.00;;;;7395145;19;20514;-73
2022/07/29 11:15:27;;;;;;;4.72;3.58;;;;;23.80;94122.00;;;;7391650;19;20186;-72
2022/07/29 11:18:00;;;;;;;3.42;3.03;;;;;23.80;94129.00;;;;7393081;19;20144;-73
2022/07/29 11:20:49;;;;;;;5.88;3.70;;;;;23.60;94130.00;;;;7393901;19;20590;-73
2022/07/29 11:23:19;;;;;;;4.65;3.45;;;;;23.60;94117.00;;;;7395717;19;20179;-73
2022/07/29 11:26:21;;;;;;;6.60;3.10;;;;;23.80;94119.00;;;;7394105;19;20149;-72
2022/07/29 11:28:52;;;;;;;4.20;3.67;;;;;24.10;94120.00;;;;7394440;19;20169;-72
2022/07/29 11:31:32;;;;;;;4.85;3.47;;;;;24.40;94110.00;;;;7391629;19;20473;-70
2022/07/29 11:34:25;;;;;;;4.30;3.20;;;;;24.70;94121.00;;;;7392318;19;20156;-69
2022/07/29 11:37:12;;;;;;;5.18;3.42;;;;;24.50;94093.00;;;;7393769;19;20145;-72
2022/07/29 11:40:07;;;;;;;4.32;3.50;;;;;25.30;94113.00;;;;7390454;19;20954;-74
2022/07/29 11:42:45;;;;;;;5.63;3.60;;;;;25.10;94113.00;;;;7393521;19;20173;-71
2022/07/29 11:45:28;;;;;;;3.17;2.88;;;;;24.90;94114.00;;;;7394550;19;20172;-71
2022/07/29 11:48:20;;;;;;;4.57;3.40;;;;;24.60;94113.00;;;;7392345;19;20594;-72
2022/07/29 11:50:58;;;;;;;5.40;3.53;;;;;24.60;94118.00;;;;7393011;19;20152;-72
2022/07/29 11:53:35;;;;;;;4.05;3.63;;;;;24.50;94126.00;;;;7391538;19;20136;-72
2022/07/29 11:56:07;;;;;;;3.22;2.92;;;;;24.40;94120.00;;;;7391465;19;20159;-71
2022/07/29 11:58:44;;;;;;;3.50;3.20;;;;;24.10;94128.00;;;;7393624;19;20562;-73
2022/07/29 12:01:18;;;;;;;4.65;3.00;;;;;23.70;94131.00;;;;7391798;19;20149;-72
2022/07/29 12:04:04;;;;;;;4.95;3.10;;;;;23.60;94140.00;;;;7392808;19;20140;-71
2022/07/29 12:06:53;;;;;;;4.90;3.28;;;;;23.30;94140.00;;;;7395612;19;20131;-75
2022/07/29 12:09:31;;;;;;;3.40;3.13;;;;;23.20;94141.00;;;;7389777;19;20212;-72
2022/07/29 12:12:08;;;;;;;4.85;2.97;;;;;23.10;94143.00;;;;7393037;19;20136;-71
2022/07/29 12:14:49;;;;;;;4.55;3.40;;;;;22.90;94141.00;;;;7390462;19;20156;-72
2022/07/29 12:17:28;;;;;;;6.30;3.20;;;;;22.60;94148.00;;;;7393121;19;20690;-71
2022/07/29 12:20:05;;;;;;;3.75;3.45;;;;;22.50;94147.00;;;;7392321;19;20579;-72
2022/07/29 12:22:40;;;;;;;5.88;3.60;;;;;22.50;94145.00;;;;7392462;19;20149;-71
2022/07/29 12:25:16;;;;;;;5.97;3.15;;;;;22.60;94148.00;;;;7393758;19;20137;-72
2022/07/29 12:28:02;;;;;;;3.38;3.08;;;;;22.80;94145.00;;;;7390660;19;20132;-73
2022/07/29 12:30:48;;;;;;;6.93;3.10;;;;;22.80;94140.00;;;;7391398;19;20151;-74
2022/07/29 12:33:29;;;;;;;4.30;3.60;;;;;22.80;94139.00;;;;7393963;19;20587;-73
2022/07/29 12:36:04;;;;;;;4.35;3.20;;;;;22.90;94126.00;;;;7392630;19;20128;-74
2022/07/29 12:38:35;;;;;;;3.92;3.53;;;;;23.30;94124.00;;;;7390390;19;20621;-71
2022/07/29 12:41:03;;;;;;;3.63;3.28;;;;;23.60;94130.00;;;;7391981;19;20136;-70
2022/07/29 12:43:55;;;;;;;5.03;3.40;;;;;23.90;94125.00;;;;7390723;19;20201;-72
2022/07/29 12:46:22;;;;;;;6.03;3.63;;;;;24.10;94133.00;;;;7388955;19;20133;-72
2022/07/29 12:48:58;;;;;;;4.38;3.25;;;;;24.30;94133.00;;;;7392842;19;20165;-72
2022/07/29 12:51:38;;;;;;;5.20;3.05;;;;;24.20;94129.00;;;;7390125;19;20117;-72
2022/07/29 12:54:16;;;;;;;4.50;3.03;;;;;24.10;94130.00;;;;7390190;19;20165;-73
2022/07/29 12:56:44;;;;;;;6.25;3.33;;;;;24.10;94137.00;;;;7391252;19;20145;-74
2022/07/29 12:59:21;;;;;;;3.97;3.03;;;;;24.00;94145.00;;;;7391995;19;20160;-75
2022/07/29 13:01:51;;;;;;;7.30;3.47;;;;;24.00;94133.00;;;;7390087;19;20152;-73
2022/07/29 13:04:32;;;;;;;6.25;3.22;;;;;23.90;94146.00;;;;7390359;19;20153;-72
2022/07/29 13:07:07;;;;;;;4.13;2.85;;;;;23.90;94147.00;;;;7392589;19;20228;-74
2022/07/29 13:09:39;;;;;;;2.83;2.53;;;;;23.90;94139.00;;;;7390124;19;20583;-74
2022/07/29 13:12:20;;;;;;;3.88;2.55;;;;;23.90;94143.00;;;;7391168;19;20152;-73